sensor_id;sensor_type;location;lat;lon;timestamp;P1;durP1;ratioP1;P2;durP2;ratioP2
50781;SDS011;36749;37.428;-121.972;2022-11-27T00:00:25;25.65;;;12.05;;
50781;SDS011;36749;37.428;-121.972;2022-11-27T00:02:52;23.67;;;11.98;;
50781;SDS011;36749;37.428;-121.972;2022-11-27T00:05:18;21.58;;;10.77;;
50781;SDS011;36749;37.428;-121.972;2022-11-27T00:07:44;25.30;;;11.75;;
50781;SDS011;36749;37.428;-121.972;2022-11-27T00:10:10;23.67;;;11.35;;
50781;SDS011;36749;37.428;-121.972;2022-11-27T00:12:36;21.65;;;11.00;;
50781;SDS011;36749;37.428;-121.972;2022-11-27T00:15:03;25.95;;;11.73;;
50781;SDS011;36749;37.428;-121.972;2022-11-27T00:17:29;21.80;;;10.88;;
50781;SDS011;36749;37.428;-121.972;2022-11-27T00:19:55;20.77;;;10.93;;
50781;SDS011;36749;37.428;-121.972;2022-11-27T00:22:21;23.52;;;11.88;;
50781;SDS011;36749;37.428;-121.972;2022-11-27T00:24:48;26.35;;;12.40;;
50781;SDS011;36749;37.428;-121.972;2022-11-27T00:27:14;21.38;;;11.63;;
50781;SDS011;36749;37.428;-121.972;2022-11-27T00:29:40;29.00;;;11.90;;
50781;SDS011;36749;37.428;-121.972;2022-11-27T00:32:06;27.83;;;12.05;;
50781;SDS011;36749;37.428;-121.972;2022-11-27T00:34:35;22.05;;;11.70;;
50781;SDS011;36749;37.428;-121.972;2022-11-27T00:37:01;20.23;;;10.80;;
50781;SDS011;36749;37.428;-121.972;2022-11-27T00:39:27;24.75;;;12.73;;
50781;SDS011;36749;37.428;-121.972;2022-11-27T00:41:54;22.65;;;11.57;;
50781;SDS011;36749;37.428;-121.972;2022-11-27T00:44:23;28.23;;;12.30;;
50781;SDS011;36749;37.428;-121.972;2022-11-27T00:46:49;26.55;;;14.00;;
50781;SDS011;36749;37.428;-121.972;2022-11-27T00:49:16;25.88;;;12.95;;
50781;SDS011;36749;37.428;-121.972;2022-11-27T00:51:42;24.83;;;11.77;;
50781;SDS011;36749;37.428;-121.972;2022-11-27T00:54:08;29.17;;;12.95;;
50781;SDS011;36749;37.428;-121.972;2022-11-27T00:56:35;23.38;;;11.88;;
50781;SDS011;36749;37.428;-121.972;2022-11-27T00:59:04;25.42;;;12.27;;
50781;SDS011;36749;37.428;-121.972;2022-11-27T01:01:34;23.20;;;12.30;;
50781;SDS011;36749;37.428;-121.972;2022-11-27T01:04:03;25.02;;;11.15;;
50781;SDS011;36749;37.428;-121.972;2022-11-27T01:06:30;23.27;;;11.52;;
50781;SDS011;36749;37.428;-121.972;2022-11-27T01:08:57;22.33;;;11.98;;
50781;SDS011;36749;37.428;-121.972;2022-11-27T01:11:24;30.23;;;13.75;;
50781;SDS011;36749;37.428;-121.972;2022-11-27T01:13:54;24.52;;;12.68;;
50781;SDS011;36749;37.428;-121.972;2022-11-27T01:16:23;24.15;;;11.00;;
50781;SDS011;36749;37.428;-121.972;2022-11-27T01:18:50;24.25;;;11.45;;
50781;SDS011;36749;37.428;-121.972;2022-11-27T01:21:19;21.48;;;11.05;;
50781;SDS011;36749;37.428;-121.972;2022-11-27T01:23:46;26.63;;;11.75;;
50781;SDS011;36749;37.428;-121.972;2022-11-27T01:26:13;23.40;;;12.15;;
50781;SDS011;36749;37.428;-121.972;2022-11-27T01:28:42;21.52;;;11.02;;
50781;SDS011;36749;37.428;-121.972;2022-11-27T01:31:11;20.42;;;10.38;;
50781;SDS011;36749;37.428;-121.972;2022-11-27T01:33:39;20.80;;;10.70;;
50781;SDS011;36749;37.428;-121.972;2022-11-27T01:36:06;23.90;;;11.25;;
50781;SDS011;36749;37.428;-121.972;2022-11-27T01:38:33;23.65;;;10.70;;
50781;SDS011;36749;37.428;-121.972;2022-11-27T01:41:00;19.45;;;10.35;;
50781;SDS011;36749;37.428;-121.972;2022-11-27T01:43:51;21.38;;;11.23;;
50781;SDS011;36749;37.428;-121.972;2022-11-27T01:48:52;22.63;;;10.93;;
50781;SDS011;36749;37.428;-121.972;2022-11-27T01:51:19;25.80;;;12.13;;
50781;SDS011;36749;37.428;-121.972;2022-11-27T01:53:46;23.17;;;11.95;;
50781;SDS011;36749;37.428;-121.972;2022-11-27T01:56:13;25.27;;;12.52;;
50781;SDS011;36749;37.428;-121.972;2022-11-27T01:58:42;25.67;;;11.48;;
50781;SDS011;36749;37.428;-121.972;2022-11-27T02:01:08;24.60;;;11.80;;
50781;SDS011;36749;37.428;-121.972;2022-11-27T02:03:35;25.10;;;12.20;;
50781;SDS011;36749;37.428;-121.972;2022-11-27T02:06:02;22.65;;;12.73;;
50781;SDS011;36749;37.428;-121.972;2022-11-27T02:08:28;23.98;;;13.05;;
50781;SDS011;36749;37.428;-121.972;2022-11-27T02:11:30;21.70;;;11.45;;
50781;SDS011;36749;37.428;-121.972;2022-11-27T02:16:17;23.08;;;11.95;;
50781;SDS011;36749;37.428;-121.972;2022-11-27T02:21:36;24.33;;;12.27;;
50781;SDS011;36749;37.428;-121.972;2022-11-27T02:29:29;24.45;;;12.77;;
50781;SDS011;36749;37.428;-121.972;2022-11-27T02:37:29;25.45;;;13.25;;
50781;SDS011;36749;37.428;-121.972;2022-11-27T02:43:20;27.27;;;13.80;;
50781;SDS011;36749;37.428;-121.972;2022-11-27T02:45:55;23.92;;;12.48;;
50781;SDS011;36749;37.428;-121.972;2022-11-27T02:48:26;24.48;;;12.65;;
50781;SDS011;36749;37.428;-121.972;2022-11-27T02:50:55;23.45;;;12.77;;
50781;SDS011;36749;37.428;-121.972;2022-11-27T02:53:25;23.88;;;12.60;;
50781;SDS011;36749;37.428;-121.972;2022-11-27T02:55:58;25.48;;;12.60;;
50781;SDS011;36749;37.428;-121.972;2022-11-27T02:58:25;25.83;;;12.50;;
50781;SDS011;36749;37.428;-121.972;2022-11-27T03:00:52;24.27;;;12.63;;
50781;SDS011;36749;37.428;-121.972;2022-11-27T03:03:20;31.92;;;13.80;;
50781;SDS011;36749;37.428;-121.972;2022-11-27T03:05:49;23.40;;;12.63;;
50781;SDS011;36749;37.428;-121.972;2022-11-27T03:08:20;27.92;;;13.57;;
50781;SDS011;36749;37.428;-121.972;2022-11-27T03:10:55;22.23;;;12.68;;
50781;SDS011;36749;37.428;-121.972;2022-11-27T03:13:25;23.23;;;12.90;;
50781;SDS011;36749;37.428;-121.972;2022-11-27T03:21:15;25.35;;;13.68;;
50781;SDS011;36749;37.428;-121.972;2022-11-27T03:23:47;27.17;;;14.32;;
50781;SDS011;36749;37.428;-121.972;2022-11-27T03:26:13;25.38;;;13.07;;
50781;SDS011;36749;37.428;-121.972;2022-11-27T03:28:40;24.70;;;14.15;;
50781;SDS011;36749;37.428;-121.972;2022-11-27T03:31:08;33.72;;;15.60;;
50781;SDS011;36749;37.428;-121.972;2022-11-27T03:33:34;25.52;;;14.95;;
50781;SDS011;36749;37.428;-121.972;2022-11-27T03:36:00;26.77;;;14.95;;
50781;SDS011;36749;37.428;-121.972;2022-11-27T03:38:26;26.30;;;14.68;;
50781;SDS011;36749;37.428;-121.972;2022-11-27T03:41:41;28.45;;;14.95;;
50781;SDS011;36749;37.428;-121.972;2022-11-27T03:44:12;28.92;;;12.07;;
50781;SDS011;36749;37.428;-121.972;2022-11-27T03:52:22;20.95;;;10.13;;
50781;SDS011;36749;37.428;-121.972;2022-11-27T03:57:36;23.42;;;11.93;;
50781;SDS011;36749;37.428;-121.972;2022-11-27T04:00:06;24.77;;;11.48;;
50781;SDS011;36749;37.428;-121.972;2022-11-27T04:02:45;24.27;;;11.45;;
50781;SDS011;36749;37.428;-121.972;2022-11-27T04:05:12;24.45;;;10.85;;
50781;SDS011;36749;37.428;-121.972;2022-11-27T04:07:39;19.95;;;10.88;;
50781;SDS011;36749;37.428;-121.972;2022-11-27T04:10:06;22.20;;;11.13;;
50781;SDS011;36749;37.428;-121.972;2022-11-27T04:12:32;19.42;;;9.80;;
50781;SDS011;36749;37.428;-121.972;2022-11-27T04:14:58;18.00;;;9.30;;
50781;SDS011;36749;37.428;-121.972;2022-11-27T04:17:25;19.75;;;9.82;;
50781;SDS011;36749;37.428;-121.972;2022-11-27T04:19:51;19.35;;;9.95;;
50781;SDS011;36749;37.428;-121.972;2022-11-27T04:22:17;23.80;;;9.82;;
50781;SDS011;36749;37.428;-121.972;2022-11-27T04:24:43;21.52;;;10.30;;
50781;SDS011;36749;37.428;-121.972;2022-11-27T04:27:10;22.75;;;8.65;;
50781;SDS011;36749;37.428;-121.972;2022-11-27T04:29:36;23.00;;;8.70;;
50781;SDS011;36749;37.428;-121.972;2022-11-27T04:32:02;22.95;;;8.20;;
50781;SDS011;36749;37.428;-121.972;2022-11-27T04:34:28;24.50;;;9.82;;
50781;SDS011;36749;37.428;-121.972;2022-11-27T04:36:55;19.27;;;7.90;;
50781;SDS011;36749;37.428;-121.972;2022-11-27T04:39:21;22.02;;;8.90;;
50781;SDS011;36749;37.428;-121.972;2022-11-27T04:41:47;19.40;;;8.50;;
50781;SDS011;36749;37.428;-121.972;2022-11-27T04:44:13;18.30;;;7.95;;
50781;SDS011;36749;37.428;-121.972;2022-11-27T04:46:40;18.27;;;7.68;;
50781;SDS011;36749;37.428;-121.972;2022-11-27T04:49:06;23.00;;;9.38;;
50781;SDS011;36749;37.428;-121.972;2022-11-27T04:51:33;20.92;;;9.50;;
50781;SDS011;36749;37.428;-121.972;2022-11-27T04:53:59;21.80;;;9.60;;
50781;SDS011;36749;37.428;-121.972;2022-11-27T04:56:25;18.23;;;8.43;;
50781;SDS011;36749;37.428;-121.972;2022-11-27T04:58:52;21.13;;;9.20;;
50781;SDS011;36749;37.428;-121.972;2022-11-27T05:01:18;19.88;;;8.88;;
50781;SDS011;36749;37.428;-121.972;2022-11-27T05:03:45;21.77;;;9.95;;
50781;SDS011;36749;37.428;-121.972;2022-11-27T05:06:12;24.15;;;12.18;;
50781;SDS011;36749;37.428;-121.972;2022-11-27T05:08:38;24.67;;;12.23;;
50781;SDS011;36749;37.428;-121.972;2022-11-27T05:11:09;28.30;;;13.70;;
50781;SDS011;36749;37.428;-121.972;2022-11-27T05:13:37;22.58;;;11.02;;
50781;SDS011;36749;37.428;-121.972;2022-11-27T05:16:03;22.42;;;10.55;;
50781;SDS011;36749;37.428;-121.972;2022-11-27T05:18:30;20.98;;;10.25;;
50781;SDS011;36749;37.428;-121.972;2022-11-27T05:20:57;22.73;;;11.23;;
50781;SDS011;36749;37.428;-121.972;2022-11-27T05:23:24;23.15;;;11.27;;
50781;SDS011;36749;37.428;-121.972;2022-11-27T05:25:51;20.23;;;11.00;;
50781;SDS011;36749;37.428;-121.972;2022-11-27T05:28:17;19.67;;;10.05;;
50781;SDS011;36749;37.428;-121.972;2022-11-27T05:30:44;26.75;;;12.23;;
50781;SDS011;36749;37.428;-121.972;2022-11-27T05:33:10;27.17;;;12.32;;
50781;SDS011;36749;37.428;-121.972;2022-11-27T05:35:36;21.00;;;11.20;;
50781;SDS011;36749;37.428;-121.972;2022-11-27T05:38:02;21.63;;;11.27;;
50781;SDS011;36749;37.428;-121.972;2022-11-27T05:40:29;24.40;;;11.52;;
50781;SDS011;36749;37.428;-121.972;2022-11-27T05:42:55;23.05;;;10.80;;
50781;SDS011;36749;37.428;-121.972;2022-11-27T05:45:21;27.33;;;12.95;;
50781;SDS011;36749;37.428;-121.972;2022-11-27T05:47:47;21.70;;;12.30;;
50781;SDS011;36749;37.428;-121.972;2022-11-27T05:50:13;26.55;;;14.40;;
50781;SDS011;36749;37.428;-121.972;2022-11-27T05:52:39;32.33;;;14.70;;
50781;SDS011;36749;37.428;-121.972;2022-11-27T05:55:06;28.40;;;14.57;;
50781;SDS011;36749;37.428;-121.972;2022-11-27T05:57:32;34.33;;;16.80;;
50781;SDS011;36749;37.428;-121.972;2022-11-27T05:59:58;30.73;;;15.70;;
50781;SDS011;36749;37.428;-121.972;2022-11-27T06:02:25;33.08;;;16.83;;
50781;SDS011;36749;37.428;-121.972;2022-11-27T06:05:11;32.42;;;16.00;;
50781;SDS011;36749;37.428;-121.972;2022-11-27T06:07:37;30.90;;;15.88;;
50781;SDS011;36749;37.428;-121.972;2022-11-27T06:10:04;29.55;;;16.92;;
50781;SDS011;36749;37.428;-121.972;2022-11-27T06:12:31;27.55;;;16.30;;
50781;SDS011;36749;37.428;-121.972;2022-11-27T06:14:57;31.40;;;15.05;;
50781;SDS011;36749;37.428;-121.972;2022-11-27T06:17:23;28.55;;;15.85;;
50781;SDS011;36749;37.428;-121.972;2022-11-27T06:19:49;32.55;;;15.38;;
50781;SDS011;36749;37.428;-121.972;2022-11-27T06:22:15;25.05;;;15.43;;
50781;SDS011;36749;37.428;-121.972;2022-11-27T06:24:42;27.40;;;15.57;;
50781;SDS011;36749;37.428;-121.972;2022-11-27T06:27:08;29.83;;;14.63;;
50781;SDS011;36749;37.428;-121.972;2022-11-27T06:29:35;29.38;;;15.18;;
50781;SDS011;36749;37.428;-121.972;2022-11-27T06:32:02;30.23;;;14.63;;
50781;SDS011;36749;37.428;-121.972;2022-11-27T06:34:29;28.30;;;14.32;;
50781;SDS011;36749;37.428;-121.972;2022-11-27T06:36:55;25.98;;;13.50;;
50781;SDS011;36749;37.428;-121.972;2022-11-27T06:39:22;26.58;;;14.15;;
50781;SDS011;36749;37.428;-121.972;2022-11-27T06:41:48;24.02;;;14.18;;
50781;SDS011;36749;37.428;-121.972;2022-11-27T06:44:14;26.98;;;14.27;;
50781;SDS011;36749;37.428;-121.972;2022-11-27T06:46:40;22.80;;;14.20;;
50781;SDS011;36749;37.428;-121.972;2022-11-27T06:49:06;25.35;;;14.38;;
50781;SDS011;36749;37.428;-121.972;2022-11-27T06:51:33;36.75;;;17.40;;
50781;SDS011;36749;37.428;-121.972;2022-11-27T06:53:59;31.23;;;18.30;;
50781;SDS011;36749;37.428;-121.972;2022-11-27T06:56:27;31.92;;;15.57;;
50781;SDS011;36749;37.428;-121.972;2022-11-27T06:58:56;28.17;;;15.48;;
50781;SDS011;36749;37.428;-121.972;2022-11-27T07:01:24;28.65;;;14.90;;
50781;SDS011;36749;37.428;-121.972;2022-11-27T07:03:51;28.70;;;15.77;;
50781;SDS011;36749;37.428;-121.972;2022-11-27T07:06:18;27.73;;;14.45;;
50781;SDS011;36749;37.428;-121.972;2022-11-27T07:08:47;29.27;;;15.85;;
50781;SDS011;36749;37.428;-121.972;2022-11-27T07:11:15;29.65;;;17.02;;
50781;SDS011;36749;37.428;-121.972;2022-11-27T07:13:43;33.00;;;18.67;;
50781;SDS011;36749;37.428;-121.972;2022-11-27T07:16:10;35.42;;;17.58;;
50781;SDS011;36749;37.428;-121.972;2022-11-27T07:18:41;33.00;;;18.30;;
50781;SDS011;36749;37.428;-121.972;2022-11-27T07:21:08;36.00;;;18.65;;
50781;SDS011;36749;37.428;-121.972;2022-11-27T07:23:35;37.92;;;19.25;;
50781;SDS011;36749;37.428;-121.972;2022-11-27T07:26:20;32.35;;;18.83;;
50781;SDS011;36749;37.428;-121.972;2022-11-27T07:28:48;32.95;;;16.90;;
50781;SDS011;36749;37.428;-121.972;2022-11-27T07:31:15;34.75;;;20.00;;
50781;SDS011;36749;37.428;-121.972;2022-11-27T07:33:43;36.53;;;19.25;;
50781;SDS011;36749;37.428;-121.972;2022-11-27T07:36:14;33.92;;;17.38;;
50781;SDS011;36749;37.428;-121.972;2022-11-27T07:38:42;34.67;;;18.67;;
50781;SDS011;36749;37.428;-121.972;2022-11-27T07:41:09;31.52;;;18.60;;
50781;SDS011;36749;37.428;-121.972;2022-11-27T07:43:36;34.28;;;18.70;;
50781;SDS011;36749;37.428;-121.972;2022-11-27T07:46:03;33.47;;;18.38;;
50781;SDS011;36749;37.428;-121.972;2022-11-27T07:48:33;33.03;;;18.85;;
50781;SDS011;36749;37.428;-121.972;2022-11-27T07:50:59;31.10;;;18.42;;
50781;SDS011;36749;37.428;-121.972;2022-11-27T07:53:26;32.92;;;17.40;;
50781;SDS011;36749;37.428;-121.972;2022-11-27T07:55:52;32.95;;;18.60;;
50781;SDS011;36749;37.428;-121.972;2022-11-27T07:58:18;35.03;;;18.02;;
50781;SDS011;36749;37.428;-121.972;2022-11-27T08:00:44;31.15;;;18.10;;
50781;SDS011;36749;37.428;-121.972;2022-11-27T08:03:10;33.40;;;18.05;;
50781;SDS011;36749;37.428;-121.972;2022-11-27T08:05:36;28.15;;;16.73;;
50781;SDS011;36749;37.428;-121.972;2022-11-27T08:08:03;34.80;;;17.58;;
50781;SDS011;36749;37.428;-121.972;2022-11-27T08:10:30;34.00;;;18.00;;
50781;SDS011;36749;37.428;-121.972;2022-11-27T08:12:56;34.30;;;18.27;;
50781;SDS011;36749;37.428;-121.972;2022-11-27T08:15:23;33.35;;;18.98;;
50781;SDS011;36749;37.428;-121.972;2022-11-27T08:17:49;32.05;;;17.10;;
50781;SDS011;36749;37.428;-121.972;2022-11-27T08:20:15;32.58;;;19.48;;
50781;SDS011;36749;37.428;-121.972;2022-11-27T08:22:44;33.28;;;18.00;;
50781;SDS011;36749;37.428;-121.972;2022-11-27T08:25:10;35.47;;;18.80;;
50781;SDS011;36749;37.428;-121.972;2022-11-27T08:27:37;36.53;;;19.15;;
50781;SDS011;36749;37.428;-121.972;2022-11-27T08:30:03;31.95;;;17.10;;
50781;SDS011;36749;37.428;-121.972;2022-11-27T08:32:30;35.78;;;17.48;;
50781;SDS011;36749;37.428;-121.972;2022-11-27T08:34:56;34.75;;;18.00;;
50781;SDS011;36749;37.428;-121.972;2022-11-27T08:37:22;29.83;;;17.40;;
50781;SDS011;36749;37.428;-121.972;2022-11-27T08:39:48;29.38;;;17.63;;
50781;SDS011;36749;37.428;-121.972;2022-11-27T08:42:15;30.42;;;17.80;;
50781;SDS011;36749;37.428;-121.972;2022-11-27T08:44:41;30.77;;;17.27;;
50781;SDS011;36749;37.428;-121.972;2022-11-27T08:47:07;32.17;;;18.17;;
50781;SDS011;36749;37.428;-121.972;2022-11-27T08:49:33;33.45;;;17.25;;
50781;SDS011;36749;37.428;-121.972;2022-11-27T08:51:59;29.58;;;16.77;;
50781;SDS011;36749;37.428;-121.972;2022-11-27T08:54:25;34.08;;;18.00;;
50781;SDS011;36749;37.428;-121.972;2022-11-27T08:56:51;31.80;;;18.48;;
50781;SDS011;36749;37.428;-121.972;2022-11-27T08:59:17;38.00;;;18.95;;
50781;SDS011;36749;37.428;-121.972;2022-11-27T09:01:44;33.95;;;17.80;;
50781;SDS011;36749;37.428;-121.972;2022-11-27T09:04:10;34.35;;;19.17;;
50781;SDS011;36749;37.428;-121.972;2022-11-27T09:06:36;27.65;;;16.65;;
50781;SDS011;36749;37.428;-121.972;2022-11-27T09:09:05;29.10;;;16.67;;
50781;SDS011;36749;37.428;-121.972;2022-11-27T09:11:31;31.02;;;17.00;;
50781;SDS011;36749;37.428;-121.972;2022-11-27T09:13:59;30.13;;;17.42;;
50781;SDS011;36749;37.428;-121.972;2022-11-27T09:16:25;31.75;;;16.90;;
50781;SDS011;36749;37.428;-121.972;2022-11-27T09:18:53;28.58;;;16.88;;
50781;SDS011;36749;37.428;-121.972;2022-11-27T09:21:20;33.03;;;17.65;;
50781;SDS011;36749;37.428;-121.972;2022-11-27T09:23:50;32.47;;;18.35;;
50781;SDS011;36749;37.428;-121.972;2022-11-27T09:26:18;31.63;;;17.08;;
50781;SDS011;36749;37.428;-121.972;2022-11-27T09:28:44;30.95;;;17.27;;
50781;SDS011;36749;37.428;-121.972;2022-11-27T09:31:12;30.83;;;18.75;;
50781;SDS011;36749;37.428;-121.972;2022-11-27T09:33:39;28.58;;;16.60;;
50781;SDS011;36749;37.428;-121.972;2022-11-27T09:36:07;26.55;;;15.68;;
50781;SDS011;36749;37.428;-121.972;2022-11-27T09:38:35;33.67;;;16.95;;
50781;SDS011;36749;37.428;-121.972;2022-11-27T09:43:44;29.77;;;15.82;;
50781;SDS011;36749;37.428;-121.972;2022-11-27T09:46:44;30.00;;;16.30;;
50781;SDS011;36749;37.428;-121.972;2022-11-27T09:49:13;26.80;;;15.75;;
50781;SDS011;36749;37.428;-121.972;2022-11-27T09:51:44;29.30;;;15.93;;
50781;SDS011;36749;37.428;-121.972;2022-11-27T09:54:43;30.42;;;17.05;;
50781;SDS011;36749;37.428;-121.972;2022-11-27T09:57:19;26.58;;;16.25;;
50781;SDS011;36749;37.428;-121.972;2022-11-27T09:59:50;27.15;;;15.15;;
50781;SDS011;36749;37.428;-121.972;2022-11-27T10:02:18;31.00;;;17.35;;
50781;SDS011;36749;37.428;-121.972;2022-11-27T10:04:50;26.25;;;17.42;;
50781;SDS011;36749;37.428;-121.972;2022-11-27T10:07:22;32.50;;;16.88;;
50781;SDS011;36749;37.428;-121.972;2022-11-27T10:10:28;29.48;;;16.67;;
50781;SDS011;36749;37.428;-121.972;2022-11-27T10:18:48;30.00;;;16.42;;
50781;SDS011;36749;37.428;-121.972;2022-11-27T10:21:30;34.72;;;17.13;;
50781;SDS011;36749;37.428;-121.972;2022-11-27T10:27:01;30.95;;;17.98;;
50781;SDS011;36749;37.428;-121.972;2022-11-27T10:29:42;33.83;;;17.17;;
50781;SDS011;36749;37.428;-121.972;2022-11-27T10:32:16;35.58;;;17.77;;
50781;SDS011;36749;37.428;-121.972;2022-11-27T10:34:46;33.85;;;17.60;;
50781;SDS011;36749;37.428;-121.972;2022-11-27T10:37:27;37.53;;;17.70;;
50781;SDS011;36749;37.428;-121.972;2022-11-27T10:43:01;27.17;;;16.08;;
50781;SDS011;36749;37.428;-121.972;2022-11-27T10:45:45;26.05;;;15.38;;
50781;SDS011;36749;37.428;-121.972;2022-11-27T10:48:19;34.50;;;16.50;;
50781;SDS011;36749;37.428;-121.972;2022-11-27T10:50:46;29.52;;;16.10;;
50781;SDS011;36749;37.428;-121.972;2022-11-27T10:53:19;27.67;;;15.35;;
50781;SDS011;36749;37.428;-121.972;2022-11-27T11:01:25;32.13;;;15.93;;
50781;SDS011;36749;37.428;-121.972;2022-11-27T11:04:06;25.27;;;15.30;;
50781;SDS011;36749;37.428;-121.972;2022-11-27T11:06:37;27.60;;;15.48;;
50781;SDS011;36749;37.428;-121.972;2022-11-27T11:09:11;26.58;;;15.55;;
50781;SDS011;36749;37.428;-121.972;2022-11-27T11:11:38;29.55;;;15.77;;
50781;SDS011;36749;37.428;-121.972;2022-11-27T11:14:13;28.40;;;15.60;;
50781;SDS011;36749;37.428;-121.972;2022-11-27T11:16:44;28.83;;;16.42;;
50781;SDS011;36749;37.428;-121.972;2022-11-27T11:19:32;27.80;;;15.38;;
50781;SDS011;36749;37.428;-121.972;2022-11-27T11:21:58;27.73;;;16.65;;
50781;SDS011;36749;37.428;-121.972;2022-11-27T11:24:33;26.55;;;15.27;;
50781;SDS011;36749;37.428;-121.972;2022-11-27T11:29:39;29.77;;;15.88;;
50781;SDS011;36749;37.428;-121.972;2022-11-27T11:34:51;28.17;;;15.40;;
50781;SDS011;36749;37.428;-121.972;2022-11-27T11:37:26;29.70;;;16.30;;
50781;SDS011;36749;37.428;-121.972;2022-11-27T11:40:37;30.08;;;15.50;;
50781;SDS011;36749;37.428;-121.972;2022-11-27T11:45:22;31.55;;;16.42;;
50781;SDS011;36749;37.428;-121.972;2022-11-27T11:47:52;30.20;;;16.38;;
50781;SDS011;36749;37.428;-121.972;2022-11-27T11:50:25;33.13;;;16.35;;
50781;SDS011;36749;37.428;-121.972;2022-11-27T11:53:21;31.80;;;17.92;;
50781;SDS011;36749;37.428;-121.972;2022-11-27T12:11:48;34.17;;;17.45;;
50781;SDS011;36749;37.428;-121.972;2022-11-27T12:25:42;30.05;;;17.15;;
50781;SDS011;36749;37.428;-121.972;2022-11-27T12:36:44;26.85;;;15.23;;
50781;SDS011;36749;37.428;-121.972;2022-11-27T12:42:04;27.63;;;15.32;;
50781;SDS011;36749;37.428;-121.972;2022-11-27T12:44:46;30.58;;;16.33;;
50781;SDS011;36749;37.428;-121.972;2022-11-27T12:47:21;26.88;;;15.38;;
50781;SDS011;36749;37.428;-121.972;2022-11-27T12:49:53;27.92;;;14.70;;
50781;SDS011;36749;37.428;-121.972;2022-11-27T12:52:27;30.83;;;16.08;;
50781;SDS011;36749;37.428;-121.972;2022-11-27T12:57:49;32.35;;;15.73;;
50781;SDS011;36749;37.428;-121.972;2022-11-27T13:00:22;28.17;;;14.50;;
50781;SDS011;36749;37.428;-121.972;2022-11-27T13:05:45;30.08;;;16.60;;
50781;SDS011;36749;37.428;-121.972;2022-11-27T13:08:32;30.05;;;16.85;;
50781;SDS011;36749;37.428;-121.972;2022-11-27T13:11:04;33.50;;;17.77;;
50781;SDS011;36749;37.428;-121.972;2022-11-27T13:13:41;33.28;;;16.55;;
50781;SDS011;36749;37.428;-121.972;2022-11-27T13:16:20;29.25;;;16.45;;
50781;SDS011;36749;37.428;-121.972;2022-11-27T13:19:13;33.00;;;16.85;;
50781;SDS011;36749;37.428;-121.972;2022-11-27T13:21:43;31.58;;;16.25;;
50781;SDS011;36749;37.428;-121.972;2022-11-27T13:24:11;28.77;;;17.17;;
50781;SDS011;36749;37.428;-121.972;2022-11-27T13:26:43;27.52;;;14.27;;
50781;SDS011;36749;37.428;-121.972;2022-11-27T13:29:30;25.83;;;15.52;;
50781;SDS011;36749;37.428;-121.972;2022-11-27T13:32:08;28.35;;;14.70;;
50781;SDS011;36749;37.428;-121.972;2022-11-27T13:34:42;25.63;;;15.10;;
50781;SDS011;36749;37.428;-121.972;2022-11-27T13:37:32;26.90;;;14.07;;
50781;SDS011;36749;37.428;-121.972;2022-11-27T13:40:19;28.95;;;14.60;;
50781;SDS011;36749;37.428;-121.972;2022-11-27T13:42:49;31.60;;;15.90;;
50781;SDS011;36749;37.428;-121.972;2022-11-27T13:45:26;32.10;;;16.33;;
50781;SDS011;36749;37.428;-121.972;2022-11-27T13:47:55;30.65;;;16.70;;
50781;SDS011;36749;37.428;-121.972;2022-11-27T13:50:22;30.33;;;15.35;;
50781;SDS011;36749;37.428;-121.972;2022-11-27T13:52:53;28.23;;;15.50;;
50781;SDS011;36749;37.428;-121.972;2022-11-27T13:55:25;27.77;;;14.23;;
50781;SDS011;36749;37.428;-121.972;2022-11-27T13:57:54;28.58;;;15.65;;
50781;SDS011;36749;37.428;-121.972;2022-11-27T14:00:37;29.00;;;14.55;;
50781;SDS011;36749;37.428;-121.972;2022-11-27T14:03:19;27.25;;;14.75;;
50781;SDS011;36749;37.428;-121.972;2022-11-27T14:05:47;24.83;;;14.27;;
50781;SDS011;36749;37.428;-121.972;2022-11-27T14:08:17;26.02;;;14.63;;
50781;SDS011;36749;37.428;-121.972;2022-11-27T14:10:51;24.98;;;14.52;;
50781;SDS011;36749;37.428;-121.972;2022-11-27T14:13:37;24.50;;;13.40;;
50781;SDS011;36749;37.428;-121.972;2022-11-27T14:16:15;26.35;;;14.18;;
50781;SDS011;36749;37.428;-121.972;2022-11-27T14:18:57;23.83;;;13.18;;
50781;SDS011;36749;37.428;-121.972;2022-11-27T14:24:21;26.85;;;14.57;;
50781;SDS011;36749;37.428;-121.972;2022-11-27T14:26:49;30.70;;;14.85;;
50781;SDS011;36749;37.428;-121.972;2022-11-27T14:29:18;24.88;;;14.25;;
50781;SDS011;36749;37.428;-121.972;2022-11-27T14:31:53;25.83;;;14.50;;
50781;SDS011;36749;37.428;-121.972;2022-11-27T14:34:30;31.85;;;15.05;;
50781;SDS011;36749;37.428;-121.972;2022-11-27T14:36:58;23.75;;;13.68;;
50781;SDS011;36749;37.428;-121.972;2022-11-27T14:39:27;25.48;;;15.07;;
50781;SDS011;36749;37.428;-121.972;2022-11-27T14:42:03;24.48;;;13.68;;
50781;SDS011;36749;37.428;-121.972;2022-11-27T14:44:33;24.83;;;14.38;;
50781;SDS011;36749;37.428;-121.972;2022-11-27T14:47:00;30.00;;;15.52;;
50781;SDS011;36749;37.428;-121.972;2022-11-27T14:49:29;26.25;;;14.85;;
50781;SDS011;36749;37.428;-121.972;2022-11-27T14:52:01;24.75;;;14.90;;
50781;SDS011;36749;37.428;-121.972;2022-11-27T14:54:38;27.98;;;14.15;;
50781;SDS011;36749;37.428;-121.972;2022-11-27T14:57:05;23.77;;;14.80;;
50781;SDS011;36749;37.428;-121.972;2022-11-27T14:59:32;28.60;;;14.70;;
50781;SDS011;36749;37.428;-121.972;2022-11-27T15:04:37;28.27;;;14.70;;
50781;SDS011;36749;37.428;-121.972;2022-11-27T15:07:05;27.52;;;14.43;;
50781;SDS011;36749;37.428;-121.972;2022-11-27T15:09:41;28.98;;;15.55;;
50781;SDS011;36749;37.428;-121.972;2022-11-27T15:12:19;26.90;;;14.95;;
50781;SDS011;36749;37.428;-121.972;2022-11-27T15:14:50;26.48;;;14.15;;
50781;SDS011;36749;37.428;-121.972;2022-11-27T15:17:24;25.00;;;14.88;;
50781;SDS011;36749;37.428;-121.972;2022-11-27T15:19:52;30.75;;;16.05;;
50781;SDS011;36749;37.428;-121.972;2022-11-27T15:22:19;25.10;;;14.25;;
50781;SDS011;36749;37.428;-121.972;2022-11-27T15:24:46;29.30;;;14.65;;
50781;SDS011;36749;37.428;-121.972;2022-11-27T15:27:25;28.95;;;15.65;;
50781;SDS011;36749;37.428;-121.972;2022-11-27T15:32:19;26.25;;;15.00;;
50781;SDS011;36749;37.428;-121.972;2022-11-27T15:34:46;28.40;;;15.43;;
50781;SDS011;36749;37.428;-121.972;2022-11-27T15:37:20;26.70;;;14.70;;
50781;SDS011;36749;37.428;-121.972;2022-11-27T15:39:49;25.02;;;13.88;;
50781;SDS011;36749;37.428;-121.972;2022-11-27T15:42:17;27.20;;;13.55;;
50781;SDS011;36749;37.428;-121.972;2022-11-27T15:44:44;25.02;;;13.73;;
50781;SDS011;36749;37.428;-121.972;2022-11-27T15:47:44;24.52;;;13.52;;
50781;SDS011;36749;37.428;-121.972;2022-11-27T15:50:04;24.83;;;13.60;;
50781;SDS011;36749;37.428;-121.972;2022-11-27T15:52:31;25.63;;;13.65;;
50781;SDS011;36749;37.428;-121.972;2022-11-27T15:54:57;26.95;;;14.48;;
50781;SDS011;36749;37.428;-121.972;2022-11-27T15:57:24;25.05;;;14.90;;